createdAt,value
2019-02-14T00:00:03.408Z,0
2019-02-14T00:01:03.816Z,0
2019-02-14T00:02:03.192Z,0
2019-02-14T00:03:03.570Z,0
2019-02-14T00:04:02.909Z,0
2019-02-14T00:05:03.762Z,0
2019-02-14T00:06:03.869Z,0
2019-02-14T00:07:03.696Z,0
2019-02-14T00:08:03.779Z,0
2019-02-14T00:09:02.961Z,0
2019-02-14T00:10:03.773Z,0
2019-02-14T00:11:03.120Z,0
2019-02-14T00:12:03.051Z,0
2019-02-14T00:13:03.441Z,0
2019-02-14T00:14:03.501Z,0
2019-02-14T00:15:03.027Z,0
2019-02-14T00:16:03.878Z,0
2019-02-14T00:17:03.391Z,0
2019-02-14T00:18:03.491Z,0
2019-02-14T00:19:03.789Z,0
2019-02-14T00:20:03.160Z,0
2019-02-14T00:21:03.518Z,0
2019-02-14T00:22:03.149Z,0
2019-02-14T00:23:03.349Z,0
2019-02-14T00:24:02.962Z,0
2019-02-14T00:25:03.464Z,0
2019-02-14T00:26:03.686Z,0
2019-02-14T00:27:03.287Z,0
2019-02-14T00:28:03.451Z,0
2019-02-14T00:29:03.136Z,0
2019-02-14T00:30:03.673Z,0
2019-02-14T00:31:03.500Z,0
2019-02-14T00:32:03.334Z,1.1
2019-02-14T00:33:03.425Z,1.1
2019-02-14T00:34:02.760Z,1.1
2019-02-14T00:35:03.519Z,0
2019-02-14T00:36:03.828Z,0
2019-02-14T00:37:03.360Z,1.1
2019-02-14T00:38:02.747Z,1.1
2019-02-14T00:39:03.328Z,1.1
2019-02-14T00:40:03.683Z,0
2019-02-14T00:41:03.202Z,0
2019-02-14T00:42:03.362Z,0
2019-02-14T00:43:02.734Z,1.1
2019-02-14T00:44:03.239Z,1.1
2019-02-14T00:45:03.801Z,1.1
2019-02-14T00:46:03.466Z,1.1
2019-02-14T00:47:03.866Z,1.1
2019-02-14T00:48:03.248Z,1.1
2019-02-14T00:49:03.896Z,0
2019-02-14T00:50:03.198Z,1.1
2019-02-14T00:51:03.847Z,1.1
2019-02-14T00:52:03.175Z,0
2019-02-14T00:53:03.777Z,0
2019-02-14T00:54:02.979Z,0
2019-02-14T00:55:03.916Z,0
2019-02-14T00:56:03.097Z,0
2019-02-14T00:57:03.772Z,0
2019-02-14T00:58:03.230Z,0
2019-02-14T00:59:03.625Z,0
2019-02-14T01:00:03.172Z,0
2019-02-14T01:01:03.439Z,0
2019-02-14T01:02:03.850Z,0
2019-02-14T01:03:03.472Z,0
2019-02-14T01:04:03.890Z,0
2019-02-14T01:05:03.258Z,0
2019-02-14T01:06:03.527Z,0
2019-02-14T01:07:03.278Z,0
2019-02-14T01:08:03.766Z,0
2019-02-14T01:09:03.065Z,0
2019-02-14T01:10:03.765Z,0
2019-02-14T01:11:02.870Z,0
2019-02-14T01:12:03.450Z,0
2019-02-14T01:13:03.154Z,0
2019-02-14T01:14:03.437Z,0
2019-02-14T01:15:02.960Z,0
2019-02-14T01:16:03.444Z,0
2019-02-14T01:17:03.184Z,0
2019-02-14T01:18:03.789Z,0
2019-02-14T01:19:03.145Z,0
2019-02-14T01:20:03.616Z,0
2019-02-14T01:21:03.815Z,0
2019-02-14T01:22:03.262Z,0
2019-02-14T01:23:03.103Z,0
2019-02-14T01:24:03.340Z,0
2019-02-14T01:25:04.023Z,0
2019-02-14T01:26:03.245Z,0
2019-02-14T01:27:04.080Z,0
2019-02-14T01:28:03.338Z,0
2019-02-14T01:29:03.837Z,0
2019-02-14T01:30:03.056Z,0
2019-02-14T01:31:03.459Z,0
2019-02-14T01:32:03.690Z,0
2019-02-14T01:33:03.535Z,0
2019-02-14T01:34:02.997Z,0
2019-02-14T01:35:03.464Z,0
2019-02-14T01:36:04.962Z,0
2019-02-14T01:37:03.071Z,0
2019-02-14T01:38:03.300Z,0
2019-02-14T01:39:03.080Z,0
2019-02-14T01:40:03.536Z,0
2019-02-14T01:41:03.106Z,0
2019-02-14T01:42:03.204Z,0
2019-02-14T01:43:03.665Z,0
2019-02-14T01:44:02.936Z,0
2019-02-14T01:45:03.031Z,0
2019-02-14T01:46:03.256Z,0
2019-02-14T01:47:03.085Z,0
2019-02-14T01:48:03.050Z,0
2019-02-14T01:49:03.416Z,0
2019-02-14T01:50:02.945Z,0
2019-02-14T01:51:03.371Z,0
2019-02-14T01:52:03.076Z,0
2019-02-14T01:53:03.952Z,0
2019-02-14T01:54:03.340Z,0
2019-02-14T01:55:03.821Z,0
2019-02-14T01:56:03.921Z,0
2019-02-14T01:57:03.464Z,0
2019-02-14T01:58:03.690Z,0
2019-02-14T01:59:03.046Z,0
2019-02-14T02:00:03.913Z,0
2019-02-14T02:01:02.888Z,0
2019-02-14T02:02:03.398Z,0
2019-02-14T02:03:03.634Z,0
2019-02-14T02:04:03.080Z,0
2019-02-14T02:05:03.737Z,0
2019-02-14T02:06:03.571Z,0
2019-02-14T02:07:03.814Z,0
2019-02-14T02:08:03.228Z,0
2019-02-14T02:09:03.684Z,0
2019-02-14T02:10:03.352Z,0
2019-02-14T02:11:03.585Z,0
2019-02-14T02:12:03.290Z,0
2019-02-14T02:13:03.656Z,0
2019-02-14T02:14:03.148Z,0
2019-02-14T02:15:03.351Z,0
2019-02-14T02:16:03.342Z,0
2019-02-14T02:17:03.331Z,0
2019-02-14T02:18:03.482Z,0
2019-02-14T02:19:03.298Z,0
2019-02-14T02:20:03.927Z,1.1
2019-02-14T02:21:03.049Z,0
2019-02-14T02:22:03.621Z,0
2019-02-14T02:23:03.115Z,0
2019-02-14T02:24:03.645Z,0
2019-02-14T02:25:03.761Z,0
2019-02-14T02:26:03.374Z,0
2019-02-14T02:27:03.696Z,0
2019-02-14T02:28:03.222Z,0
2019-02-14T02:29:03.803Z,0
2019-02-14T02:30:03.490Z,0
2019-02-14T02:31:03.833Z,0
2019-02-14T02:32:03.472Z,0
2019-02-14T02:33:03.468Z,0
2019-02-14T02:34:03.005Z,0
2019-02-14T02:35:03.685Z,0
2019-02-14T02:36:02.936Z,0
2019-02-14T02:37:03.462Z,0
2019-02-14T02:38:02.882Z,0
2019-02-14T02:39:03.221Z,0
2019-02-14T02:40:04.190Z,0
2019-02-14T02:41:03.174Z,0
2019-02-14T02:42:03.946Z,0
2019-02-14T02:43:03.328Z,0
2019-02-14T02:44:02.915Z,0
2019-02-14T02:45:03.479Z,0
2019-02-14T02:46:03.703Z,0
2019-02-14T02:47:02.976Z,0
2019-02-14T02:48:03.908Z,0
2019-02-14T02:49:03.178Z,0
2019-02-14T02:50:03.683Z,0
2019-02-14T02:51:03.016Z,0
2019-02-14T02:52:03.284Z,0
2019-02-14T02:53:03.703Z,0
2019-02-14T02:54:03.314Z,0
2019-02-14T02:55:04.157Z,0
2019-02-14T02:56:03.026Z,0
2019-02-14T02:57:03.943Z,0
2019-02-14T02:58:03.079Z,0
2019-02-14T02:59:03.820Z,0
2019-02-14T03:00:02.833Z,0
2019-02-14T03:01:03.734Z,0
2019-02-14T03:02:03.450Z,0
2019-02-14T03:03:02.305Z,0
2019-02-14T03:04:03.302Z,0
2019-02-14T03:05:03.795Z,0
2019-02-14T03:06:11.304Z,0
2019-02-14T03:07:03.585Z,0
2019-02-14T03:08:02.888Z,0
2019-02-14T03:09:03.675Z,0
2019-02-14T03:10:03.237Z,0
2019-02-14T03:11:03.653Z,0
2019-02-14T03:12:03.059Z,0
2019-02-14T03:13:03.298Z,0
2019-02-14T03:14:03.844Z,0
2019-02-14T03:15:03.690Z,0
2019-02-14T03:16:02.920Z,0
2019-02-14T03:17:03.323Z,0
2019-02-14T03:18:03.721Z,0
2019-02-14T03:19:03.811Z,0
2019-02-14T03:20:03.278Z,0
2019-02-14T03:21:03.672Z,0
2019-02-14T03:22:03.564Z,0
2019-02-14T03:23:03.902Z,0
2019-02-14T03:24:03.415Z,0
2019-02-14T03:25:03.976Z,0
2019-02-14T03:26:03.412Z,0
2019-02-14T03:27:03.732Z,0
2019-02-14T03:28:03.235Z,0
2019-02-14T03:29:03.502Z,0
2019-02-14T03:30:03.124Z,0
2019-02-14T03:31:03.190Z,0
2019-02-14T03:32:03.121Z,0
2019-02-14T03:33:03.449Z,0
2019-02-14T03:34:03.905Z,0
2019-02-14T03:35:03.452Z,0
2019-02-14T03:36:03.940Z,0
2019-02-14T03:37:03.572Z,0
2019-02-14T03:38:03.243Z,0
2019-02-14T03:39:03.136Z,0
2019-02-14T03:40:03.199Z,0
2019-02-14T03:41:03.675Z,0
2019-02-14T03:42:03.075Z,0
2019-02-14T03:43:03.626Z,0
2019-02-14T03:44:03.095Z,0
2019-02-14T03:45:03.433Z,0
2019-02-14T03:46:03.804Z,0
2019-02-14T03:47:03.365Z,0
2019-02-14T03:48:03.043Z,0
2019-02-14T03:49:03.595Z,0
2019-02-14T03:50:03.785Z,0
2019-02-14T03:51:03.304Z,0
2019-02-14T03:52:03.920Z,0
2019-02-14T03:53:03.266Z,0
2019-02-14T03:54:03.533Z,0
2019-02-14T03:55:03.495Z,0
2019-02-14T03:56:03.402Z,0
2019-02-14T03:57:03.035Z,0
2019-02-14T03:58:03.483Z,0
2019-02-14T03:59:03.192Z,0
2019-02-14T04:00:03.758Z,0
2019-02-14T04:01:02.898Z,0
2019-02-14T04:02:03.650Z,0
2019-02-14T04:03:03.554Z,0
2019-02-14T04:04:03.029Z,0
2019-02-14T04:05:03.635Z,0
2019-02-14T04:06:03.270Z,0
2019-02-14T04:07:02.782Z,0
2019-02-14T04:08:03.234Z,0
2019-02-14T04:09:03.718Z,0
2019-02-14T04:10:03.212Z,0
2019-02-14T04:11:03.764Z,0
2019-02-14T04:12:02.999Z,0
2019-02-14T04:13:03.072Z,0
2019-02-14T04:14:02.940Z,0
2019-02-14T04:15:03.518Z,0
2019-02-14T04:16:04.871Z,0
2019-02-14T04:17:03.315Z,0
2019-02-14T04:18:03.024Z,0
2019-02-14T04:19:03.316Z,0
2019-02-14T04:20:04.061Z,0
2019-02-14T04:21:03.195Z,0
2019-02-14T04:22:03.658Z,0
2019-02-14T04:23:03.015Z,0
2019-02-14T04:24:03.450Z,0
2019-02-14T04:25:03.268Z,0
2019-02-14T04:26:03.166Z,0
2019-02-14T04:27:03.806Z,0
2019-02-14T04:28:02.869Z,0
2019-02-14T04:29:03.595Z,0
2019-02-14T04:30:03.293Z,0
2019-02-14T04:31:03.598Z,1.1
2019-02-14T04:32:03.101Z,0
2019-02-14T04:33:03.817Z,0
2019-02-14T04:34:03.119Z,0
2019-02-14T04:35:03.011Z,0
2019-02-14T04:36:02.978Z,0
2019-02-14T04:37:03.640Z,0
2019-02-14T04:38:03.073Z,0
2019-02-14T04:39:03.701Z,0
2019-02-14T04:40:04.006Z,0
2019-02-14T04:41:03.020Z,0
2019-02-14T04:42:03.617Z,0
2019-02-14T04:43:03.638Z,0
2019-02-14T04:44:02.949Z,0
2019-02-14T04:45:03.487Z,0
2019-02-14T04:46:03.914Z,0
2019-02-14T04:47:02.991Z,0
2019-02-14T04:48:03.449Z,0
2019-02-14T04:49:03.204Z,0
2019-02-14T04:50:03.648Z,0
2019-02-14T04:51:03.684Z,0
2019-02-14T04:52:03.339Z,0
2019-02-14T04:53:03.977Z,0
2019-02-14T04:54:03.389Z,0
2019-02-14T04:55:03.559Z,0
2019-02-14T04:56:03.328Z,0
2019-02-14T04:57:03.517Z,1.1
2019-02-14T04:58:03.142Z,1.1
2019-02-14T04:59:03.211Z,1.1
2019-02-14T05:00:03.901Z,1.1
2019-02-14T05:01:03.192Z,1.1
2019-02-14T05:02:03.892Z,1.1
2019-02-14T05:03:03.140Z,1.1
2019-02-14T05:04:03.705Z,1.1
2019-02-14T05:05:03.039Z,1.1
2019-02-14T05:06:04.226Z,1.1
2019-02-14T05:07:02.938Z,1.1
2019-02-14T05:08:03.758Z,1.1
2019-02-14T05:09:02.905Z,0
2019-02-14T05:10:03.936Z,0
2019-02-14T05:11:02.927Z,0
2019-02-14T05:12:03.757Z,0
2019-02-14T05:13:02.955Z,0
2019-02-14T05:14:03.466Z,0
2019-02-14T05:15:03.370Z,0
2019-02-14T05:16:03.809Z,0
2019-02-14T05:17:03.370Z,0
2019-02-14T05:18:03.328Z,0
2019-02-14T05:19:03.025Z,0
2019-02-14T05:20:03.912Z,0
2019-02-14T05:21:03.150Z,0
2019-02-14T05:22:03.020Z,0
2019-02-14T05:23:03.596Z,0
2019-02-14T05:24:03.195Z,1.1
2019-02-14T05:25:03.634Z,1.1
2019-02-14T05:26:02.752Z,1.1
2019-02-14T05:27:03.719Z,0
2019-02-14T05:28:02.965Z,0
2019-02-14T05:29:03.718Z,0
2019-02-14T05:30:03.304Z,0
2019-02-14T05:31:03.271Z,0
2019-02-14T05:32:03.728Z,0
2019-02-14T05:33:03.288Z,0
2019-02-14T05:34:03.789Z,0
2019-02-14T05:35:03.276Z,0
2019-02-14T05:36:02.885Z,0
2019-02-14T05:37:03.494Z,0
2019-02-14T05:38:03.256Z,0
2019-02-14T05:39:03.501Z,0
2019-02-14T05:40:02.897Z,0
2019-02-14T05:41:03.623Z,0
2019-02-14T05:42:03.002Z,0
2019-02-14T05:43:03.448Z,0
2019-02-14T05:44:02.980Z,0
2019-02-14T05:45:03.207Z,0
2019-02-14T05:46:03.072Z,0
2019-02-14T05:47:03.194Z,0
2019-02-14T05:48:02.973Z,0
2019-02-14T05:49:03.303Z,0
2019-02-14T05:50:03.781Z,0
2019-02-14T05:51:03.187Z,0
2019-02-14T05:52:03.627Z,0
2019-02-14T05:53:03.839Z,0
2019-02-14T05:54:03.293Z,0
2019-02-14T05:55:03.156Z,0
2019-02-14T05:56:03.680Z,0
2019-02-14T05:57:03.000Z,0
2019-02-14T05:58:03.516Z,0
2019-02-14T05:59:03.020Z,0
2019-02-14T06:00:03.592Z,0
2019-02-14T06:01:02.856Z,0
2019-02-14T06:02:02.906Z,0
2019-02-14T06:03:02.997Z,0
2019-02-14T06:04:03.848Z,0
2019-02-14T06:05:03.477Z,0
2019-02-14T06:06:03.051Z,0
2019-02-14T06:07:03.662Z,0
2019-02-14T06:08:03.838Z,0
2019-02-14T06:09:03.376Z,0
2019-02-14T06:10:03.804Z,0
2019-02-14T06:11:03.496Z,0
2019-02-14T06:12:03.452Z,0
2019-02-14T06:13:03.164Z,0
2019-02-14T06:14:03.780Z,0
2019-02-14T06:15:03.402Z,0
2019-02-14T06:16:03.743Z,0
2019-02-14T06:17:03.534Z,0
2019-02-14T06:18:03.819Z,0
2019-02-14T06:19:02.991Z,0
2019-02-14T06:20:03.608Z,0
2019-02-14T06:21:04.005Z,0
2019-02-14T06:22:03.449Z,0
2019-02-14T06:23:03.365Z,0
2019-02-14T06:24:03.365Z,0
2019-02-14T06:25:03.787Z,0
2019-02-14T06:26:03.080Z,0
2019-02-14T06:27:03.510Z,0
2019-02-14T06:28:03.244Z,0
2019-02-14T06:29:03.597Z,0
2019-02-14T06:30:03.070Z,0
2019-02-14T06:31:03.393Z,0
2019-02-14T06:32:03.019Z,0
2019-02-14T06:33:03.352Z,0
2019-02-14T06:34:02.788Z,0
2019-02-14T06:35:03.364Z,0
2019-02-14T06:36:03.223Z,0
2019-02-14T06:37:10.319Z,0
2019-02-14T06:38:03.389Z,0
2019-02-14T06:39:03.475Z,0
2019-02-14T06:40:03.176Z,0
2019-02-14T06:41:04.004Z,0
2019-02-14T06:42:03.256Z,0
2019-02-14T06:43:04.150Z,0
2019-02-14T06:44:03.231Z,0
2019-02-14T06:45:02.790Z,0
2019-02-14T06:46:03.596Z,0
2019-02-14T06:47:05.008Z,0
2019-02-14T06:48:03.663Z,0
2019-02-14T06:49:03.854Z,0
2019-02-14T06:50:02.917Z,0
2019-02-14T06:51:03.395Z,0
2019-02-14T06:52:03.251Z,0
2019-02-14T06:53:03.378Z,0
2019-02-14T06:54:03.995Z,0
2019-02-14T06:55:03.375Z,0
2019-02-14T06:56:03.983Z,0
2019-02-14T06:57:03.510Z,0
2019-02-14T06:58:03.962Z,0
2019-02-14T06:59:03.403Z,0
2019-02-14T07:00:04.019Z,0
2019-02-14T07:01:03.258Z,0
2019-02-14T07:02:03.114Z,0
2019-02-14T07:03:03.556Z,0
2019-02-14T07:04:03.893Z,0
2019-02-14T07:05:03.199Z,0
2019-02-14T07:06:02.906Z,0
2019-02-14T07:07:03.764Z,0
2019-02-14T07:08:03.845Z,0
2019-02-14T07:09:03.101Z,0
2019-02-14T07:10:03.725Z,0
2019-02-14T07:11:03.687Z,0
2019-02-14T07:12:03.389Z,0
2019-02-14T07:13:03.619Z,0
2019-02-14T07:14:03.781Z,0
2019-02-14T07:15:03.304Z,0
2019-02-14T07:16:03.726Z,0
2019-02-14T07:17:03.317Z,0
2019-02-14T07:18:03.439Z,0
2019-02-14T07:19:03.120Z,0
2019-02-14T07:20:03.933Z,0
2019-02-14T07:21:02.983Z,0
2019-02-14T07:22:03.761Z,0
2019-02-14T07:23:02.929Z,0
2019-02-14T07:24:03.775Z,0
2019-02-14T07:25:03.124Z,0
2019-02-14T07:26:03.664Z,0
2019-02-14T07:27:03.276Z,0
2019-02-14T07:28:03.947Z,0
2019-02-14T07:29:03.581Z,0
2019-02-14T07:30:03.087Z,0
2019-02-14T07:31:03.470Z,0
2019-02-14T07:32:03.373Z,0
2019-02-14T07:33:03.603Z,0
2019-02-14T07:34:04.400Z,0
2019-02-14T07:35:03.835Z,0
2019-02-14T07:36:03.212Z,0
2019-02-14T07:37:03.642Z,0
2019-02-14T07:38:03.053Z,0
2019-02-14T07:39:03.785Z,0
2019-02-14T07:40:03.004Z,0
2019-02-14T07:41:03.520Z,0
2019-02-14T07:42:03.719Z,0
2019-02-14T07:43:03.717Z,0
2019-02-14T07:44:03.657Z,0
2019-02-14T07:45:03.333Z,0
2019-02-14T07:46:03.374Z,0
2019-02-14T07:47:03.028Z,0
2019-02-14T07:48:03.318Z,0
2019-02-14T07:49:03.754Z,0
2019-02-14T07:50:03.389Z,0
2019-02-14T07:51:02.884Z,0
2019-02-14T07:52:03.451Z,0
2019-02-14T07:53:03.136Z,0
2019-02-14T07:54:03.169Z,0
2019-02-14T07:55:03.850Z,0
2019-02-14T07:56:03.246Z,0
2019-02-14T07:57:03.752Z,0
2019-02-14T07:58:03.314Z,0
2019-02-14T07:59:03.884Z,0
2019-02-14T08:00:03.510Z,0
2019-02-14T08:01:03.858Z,0
2019-02-14T08:02:03.500Z,0
2019-02-14T08:03:03.902Z,1.1
2019-02-14T08:04:03.459Z,0
2019-02-14T08:05:03.054Z,0
2019-02-14T08:06:03.328Z,1.1
2019-02-14T08:07:03.761Z,1.1
2019-02-14T08:08:02.962Z,1.1
2019-02-14T08:09:03.194Z,1.1
2019-02-14T08:10:02.927Z,1.1
2019-02-14T08:11:03.205Z,1.1
2019-02-14T08:12:03.910Z,1.1
2019-02-14T08:13:03.021Z,1.1
2019-02-14T08:14:03.686Z,1.1
2019-02-14T08:15:03.298Z,1.1
2019-02-14T08:16:03.814Z,1.1
2019-02-14T08:17:03.820Z,1.1
2019-02-14T08:18:03.147Z,1.1
2019-02-14T08:19:03.259Z,1.1
2019-02-14T08:20:03.914Z,0
2019-02-14T08:21:03.344Z,1.1
2019-02-14T08:22:03.903Z,0
2019-02-14T08:23:03.394Z,0
2019-02-14T08:24:03.844Z,0
2019-02-14T08:25:03.183Z,1.1
2019-02-14T08:26:11.556Z,0
2019-02-14T08:27:04.020Z,0
2019-02-14T08:28:03.377Z,1.1
2019-02-14T08:29:02.865Z,0
2019-02-14T08:30:03.535Z,0
2019-02-14T08:31:03.781Z,0
2019-02-14T08:32:03.207Z,0
2019-02-14T08:33:03.666Z,1.1
2019-02-14T08:34:03.274Z,0
2019-02-14T08:35:03.739Z,0
2019-02-14T08:36:03.383Z,0
2019-02-14T08:37:03.887Z,0
2019-02-14T08:38:03.414Z,0
2019-02-14T08:39:02.972Z,0
2019-02-14T08:40:03.366Z,1.1
2019-02-14T08:41:03.671Z,0
2019-02-14T08:42:03.299Z,2.5
2019-02-14T08:43:03.708Z,1.1
2019-02-14T08:44:03.448Z,0
2019-02-14T08:45:04.002Z,0
2019-02-14T08:46:03.408Z,1.1
2019-02-14T08:47:03.706Z,2.5
2019-02-14T08:48:03.782Z,2.5
2019-02-14T08:49:02.994Z,2.5
2019-02-14T08:50:03.314Z,1.1
2019-02-14T08:51:03.607Z,1.1
2019-02-14T08:52:03.404Z,1.1
2019-02-14T08:53:04.002Z,1.1
2019-02-14T08:54:03.544Z,1.1
2019-02-14T08:55:04.030Z,0
2019-02-14T08:56:03.357Z,0
2019-02-14T08:57:03.793Z,1.1
2019-02-14T08:58:03.288Z,0
2019-02-14T08:59:03.817Z,0
2019-02-14T09:00:03.235Z,1.1
2019-02-14T09:01:03.599Z,1.1
2019-02-14T09:02:03.314Z,1.1
2019-02-14T09:03:03.478Z,1.1
2019-02-14T09:04:03.085Z,1.1
2019-02-14T09:05:03.558Z,1.1
2019-02-14T09:06:02.934Z,1.1
2019-02-14T09:07:03.721Z,1.1
2019-02-14T09:08:02.921Z,1.1
2019-02-14T09:09:03.597Z,1.1
2019-02-14T09:10:03.812Z,2.5
2019-02-14T09:11:03.452Z,0
2019-02-14T09:12:03.246Z,0
2019-02-14T09:13:03.772Z,0
2019-02-14T09:14:03.260Z,2.5
2019-02-14T09:15:03.872Z,0
2019-02-14T09:16:03.146Z,0
2019-02-14T09:17:03.011Z,0
2019-02-14T09:18:03.093Z,1.1
2019-02-14T09:19:03.385Z,2.5
2019-02-14T09:20:03.164Z,1.1
2019-02-14T09:21:03.494Z,1.1
2019-02-14T09:22:03.096Z,1.1
2019-02-14T09:23:03.103Z,1.1
2019-02-14T09:24:03.652Z,1.1
2019-02-14T09:25:02.989Z,2.5
2019-02-14T09:26:04.056Z,2.5
2019-02-14T09:27:03.330Z,0
2019-02-14T09:28:03.536Z,1.1
2019-02-14T09:29:03.399Z,2.5
2019-02-14T09:30:03.544Z,0
2019-02-14T09:31:03.007Z,0
2019-02-14T09:32:03.526Z,1.1
2019-02-14T09:33:03.061Z,0
2019-02-14T09:34:03.470Z,0
2019-02-14T09:35:02.979Z,0
2019-02-14T09:36:03.478Z,0
2019-02-14T09:37:03.581Z,0
2019-02-14T09:38:04.127Z,0
2019-02-14T09:39:03.851Z,2.5
2019-02-14T09:40:03.239Z,0
2019-02-14T09:41:03.340Z,0
2019-02-14T09:42:03.121Z,0
2019-02-14T09:43:03.456Z,0
2019-02-14T09:44:03.260Z,0
2019-02-14T09:45:03.559Z,0
2019-02-14T09:46:02.943Z,2.5
2019-02-14T09:47:03.651Z,0
2019-02-14T09:48:03.073Z,0
2019-02-14T09:49:03.821Z,2.5
2019-02-14T09:50:03.219Z,1.1
2019-02-14T09:51:02.944Z,7.2
2019-02-14T09:52:03.171Z,6.1
2019-02-14T09:53:03.758Z,3.6
2019-02-14T09:54:03.490Z,6.1
2019-02-14T09:55:04.111Z,8.6
2019-02-14T09:56:03.635Z,6.1
2019-02-14T09:57:03.667Z,6.1
2019-02-14T09:58:03.268Z,6.1
2019-02-14T09:59:03.490Z,2.5
2019-02-14T10:00:03.529Z,5
2019-02-14T10:01:03.705Z,2.5
2019-02-14T10:02:03.484Z,2.5
2019-02-14T10:03:02.747Z,2.5
2019-02-14T10:04:03.201Z,3.6
2019-02-14T10:05:03.886Z,3.6
2019-02-14T10:06:03.064Z,5
2019-02-14T10:07:03.363Z,2.5
2019-02-14T10:08:13.648Z,1.1
2019-02-14T10:09:03.549Z,2.5
2019-02-14T10:10:03.930Z,2.5
2019-02-14T10:11:03.453Z,3.6
2019-02-14T10:12:03.802Z,3.6
2019-02-14T10:13:03.286Z,1.1
2019-02-14T10:14:04.052Z,2.5
2019-02-14T10:15:02.976Z,3.6
2019-02-14T10:16:03.406Z,2.5
2019-02-14T10:17:03.650Z,2.5
2019-02-14T10:18:03.348Z,2.5
2019-02-14T10:19:03.578Z,2.5
2019-02-14T10:20:02.974Z,2.5
2019-02-14T10:21:03.354Z,2.5
2019-02-14T10:22:03.310Z,3.6
2019-02-14T10:23:03.416Z,1.1
2019-02-14T10:24:03.324Z,0
2019-02-14T10:25:03.770Z,0
2019-02-14T10:26:03.052Z,0
2019-02-14T10:27:03.541Z,0
2019-02-14T10:28:02.997Z,0
2019-02-14T10:29:03.491Z,0
2019-02-14T10:30:03.242Z,0
2019-02-14T10:31:03.477Z,0
2019-02-14T10:32:03.630Z,0
2019-02-14T10:33:03.547Z,0
2019-02-14T10:34:03.673Z,0
2019-02-14T10:35:03.492Z,1.1
2019-02-14T10:36:04.851Z,1.1
2019-02-14T10:37:03.175Z,1.1
2019-02-14T10:38:02.969Z,2.5
2019-02-14T10:39:03.717Z,2.5
2019-02-14T10:40:03.550Z,1.1
2019-02-14T10:41:03.769Z,1.1
2019-02-14T10:42:03.411Z,0
2019-02-14T10:43:03.114Z,1.1
2019-02-14T10:44:03.347Z,0
2019-02-14T10:45:02.992Z,0
2019-02-14T10:46:03.130Z,1.1
2019-02-14T10:47:03.731Z,2.5
2019-02-14T10:48:02.905Z,5
2019-02-14T10:49:03.753Z,5
2019-02-14T10:50:03.344Z,6.1
2019-02-14T10:51:03.708Z,5
2019-02-14T10:52:03.099Z,3.6
2019-02-14T10:53:03.710Z,5
2019-02-14T10:54:03.216Z,5
2019-02-14T10:55:03.039Z,3.6
2019-02-14T10:56:03.489Z,3.6
2019-02-14T10:57:02.801Z,3.6
2019-02-14T10:58:03.084Z,6.1
2019-02-14T10:59:03.645Z,5
2019-02-14T11:00:03.183Z,6.1
2019-02-14T11:01:02.793Z,8.6
2019-02-14T11:02:03.144Z,8.6
2019-02-14T11:03:03.318Z,8.6
2019-02-14T11:04:03.375Z,8.6
2019-02-14T11:05:03.808Z,8.6
2019-02-14T11:06:03.248Z,8.6
2019-02-14T11:07:03.504Z,8.6
2019-02-14T11:08:03.799Z,8.6
2019-02-14T11:09:03.349Z,5
2019-02-14T11:10:03.736Z,7.2
2019-02-14T11:11:03.106Z,6.1
2019-02-14T11:12:03.497Z,6.1
2019-02-14T11:13:03.767Z,5
2019-02-14T11:14:03.816Z,5
2019-02-14T11:15:03.008Z,3.6
2019-02-14T11:16:03.759Z,5
2019-02-14T11:17:03.187Z,5
2019-02-14T11:18:03.021Z,5
2019-02-14T11:19:03.556Z,2.5
2019-02-14T11:20:03.680Z,0
2019-02-14T11:21:03.562Z,1.1
2019-02-14T11:22:03.111Z,3.6
2019-02-14T11:23:03.355Z,5
2019-02-14T11:24:03.004Z,3.6
2019-02-14T11:25:03.616Z,5
2019-02-14T11:26:03.715Z,3.6
2019-02-14T11:27:03.628Z,3.6
2019-02-14T11:28:03.855Z,5
2019-02-14T11:29:03.182Z,2.5
2019-02-14T11:30:03.515Z,0
2019-02-14T11:31:02.834Z,0
2019-02-14T11:32:03.589Z,3.6
2019-02-14T11:33:03.025Z,2.5
2019-02-14T11:34:04.223Z,0
2019-02-14T11:35:03.021Z,2.5
2019-02-14T11:36:03.224Z,1.1
2019-02-14T11:37:03.740Z,2.5
2019-02-14T11:38:03.070Z,3.6
2019-02-14T11:39:03.744Z,2.5
2019-02-14T11:40:03.254Z,3.6
2019-02-14T11:41:03.475Z,3.6
2019-02-14T11:42:03.875Z,3.6
2019-02-14T11:43:03.696Z,1.1
2019-02-14T11:44:03.896Z,1.1
2019-02-14T11:45:03.944Z,0
2019-02-14T11:46:03.356Z,1.1
2019-02-14T11:47:03.140Z,0
2019-02-14T11:48:03.221Z,0
2019-02-14T11:49:02.963Z,0
2019-02-14T11:50:03.564Z,0
2019-02-14T11:51:03.887Z,1.1
2019-02-14T11:52:03.195Z,1.1
2019-02-14T11:53:03.147Z,0
2019-02-14T11:54:03.521Z,0
2019-02-14T11:55:04.099Z,3.6
2019-02-14T11:56:03.204Z,1.1
2019-02-14T11:57:03.230Z,1.1
2019-02-14T11:58:03.677Z,1.1
2019-02-14T11:59:03.460Z,0
2019-02-14T12:00:03.019Z,0
2019-02-14T12:01:03.721Z,0
2019-02-14T12:02:02.810Z,0
2019-02-14T12:03:03.200Z,0
2019-02-14T12:04:03.726Z,0
2019-02-14T12:05:03.055Z,1.1
2019-02-14T12:06:03.948Z,2.5
2019-02-14T12:07:03.176Z,0
2019-02-14T12:08:03.854Z,0
2019-02-14T12:09:03.317Z,0
2019-02-14T12:10:14.224Z,0
2019-02-14T12:11:03.138Z,2.5
2019-02-14T12:12:03.544Z,3.6
2019-02-14T12:13:03.062Z,2.5
2019-02-14T12:14:03.513Z,3.6
2019-02-14T12:15:03.313Z,2.5
2019-02-14T12:16:03.409Z,1.1
2019-02-14T12:17:03.767Z,2.5
2019-02-14T12:18:03.435Z,2.5
2019-02-14T12:19:03.818Z,2.5
2019-02-14T12:20:03.694Z,2.5
2019-02-14T12:21:03.813Z,3.6
2019-02-14T12:22:04.021Z,2.5
2019-02-14T12:23:03.441Z,3.6
2019-02-14T12:24:03.791Z,2.5
2019-02-14T12:25:03.507Z,2.5
2019-02-14T12:26:03.223Z,3.6
2019-02-14T12:27:03.480Z,2.5
2019-02-14T12:28:02.976Z,2.5
2019-02-14T12:29:03.964Z,6.1
2019-02-14T12:30:03.274Z,5
2019-02-14T12:31:04.149Z,1.1
2019-02-14T12:32:03.025Z,2.5
2019-02-14T12:33:03.194Z,1.1
2019-02-14T12:34:03.235Z,0
2019-02-14T12:35:03.848Z,1.1
2019-02-14T12:36:03.134Z,0
2019-02-14T12:37:03.543Z,1.1
2019-02-14T12:38:02.966Z,1.1
2019-02-14T12:39:12.038Z,0
2019-02-14T12:40:03.014Z,0
2019-02-14T12:41:03.398Z,5
2019-02-14T12:42:03.696Z,3.6
2019-02-14T12:43:03.121Z,3.6
2019-02-14T12:44:02.700Z,2.5
2019-02-14T12:45:03.615Z,3.6
2019-02-14T12:46:02.877Z,3.6
2019-02-14T12:47:03.176Z,2.5
2019-02-14T12:48:03.818Z,0
2019-02-14T12:49:02.856Z,2.5
2019-02-14T12:50:03.600Z,2.5
2019-02-14T12:51:03.146Z,2.5
2019-02-14T12:52:03.611Z,0
2019-02-14T12:53:03.220Z,2.5
2019-02-14T12:54:03.612Z,2.5
2019-02-14T12:55:03.848Z,0
2019-02-14T12:56:03.036Z,0
2019-02-14T12:57:03.308Z,0
2019-02-14T12:58:02.918Z,3.6
2019-02-14T12:59:03.590Z,1.1
2019-02-14T13:00:03.690Z,1.1
2019-02-14T13:01:03.417Z,1.1
2019-02-14T13:02:03.689Z,1.1
2019-02-14T13:03:02.980Z,1.1
2019-02-14T13:04:03.693Z,1.1
2019-02-14T13:05:03.227Z,1.1
2019-02-14T13:06:03.481Z,1.1
2019-02-14T13:07:03.872Z,1.1
2019-02-14T13:08:03.065Z,1.1
2019-02-14T13:09:03.395Z,0
2019-02-14T13:10:03.522Z,1.1
2019-02-14T13:11:03.510Z,2.5
2019-02-14T13:12:03.580Z,1.1
2019-02-14T13:13:03.096Z,1.1
2019-02-14T13:14:03.562Z,0
2019-02-14T13:15:03.053Z,0
2019-02-14T13:16:03.303Z,0
2019-02-14T13:17:03.202Z,1.1
2019-02-14T13:18:03.548Z,3.6
2019-02-14T13:19:03.732Z,0
2019-02-14T13:20:03.245Z,2.5
2019-02-14T13:21:03.990Z,2.5
2019-02-14T13:22:03.226Z,5
2019-02-14T13:23:03.840Z,3.6
2019-02-14T13:24:03.476Z,2.5
2019-02-14T13:25:03.463Z,1.1
2019-02-14T13:26:03.411Z,2.5
2019-02-14T13:27:02.911Z,2.5
2019-02-14T13:28:03.117Z,1.1
2019-02-14T13:29:03.671Z,2.5
2019-02-14T13:30:03.196Z,3.6
2019-02-14T13:31:03.634Z,2.5
2019-02-14T13:32:03.362Z,1.1
2019-02-14T13:33:03.565Z,1.1
2019-02-14T13:34:03.176Z,0
2019-02-14T13:35:03.866Z,0
2019-02-14T13:36:02.951Z,0
2019-02-14T13:37:03.524Z,0
2019-02-14T13:38:03.787Z,0
2019-02-14T13:39:03.262Z,0
2019-02-14T13:40:03.776Z,0
2019-02-14T13:41:03.886Z,0
2019-02-14T13:42:03.697Z,1.1
2019-02-14T13:43:03.088Z,1.1
2019-02-14T13:44:03.434Z,0
2019-02-14T13:45:04.032Z,0
2019-02-14T13:46:03.307Z,1.1
2019-02-14T13:47:02.980Z,0
2019-02-14T13:48:03.452Z,0
2019-02-14T13:49:03.845Z,0
2019-02-14T13:50:03.814Z,1.1
2019-02-14T13:51:03.895Z,0
2019-02-14T13:52:03.340Z,1.1
2019-02-14T13:53:03.735Z,1.1
2019-02-14T13:54:03.298Z,2.5
2019-02-14T13:55:03.954Z,2.5
2019-02-14T13:56:03.429Z,3.6
2019-02-14T13:57:03.788Z,3.6
2019-02-14T13:58:03.061Z,2.5
2019-02-14T13:59:03.132Z,0
2019-02-14T14:00:03.941Z,3.6
2019-02-14T14:01:03.808Z,2.5
2019-02-14T14:02:02.874Z,2.5
2019-02-14T14:03:03.476Z,1.1
2019-02-14T14:04:03.858Z,1.1
2019-02-14T14:05:03.443Z,0
2019-02-14T14:06:03.015Z,0
2019-02-14T14:07:03.271Z,1.1
2019-02-14T14:08:03.525Z,1.1
2019-02-14T14:09:03.370Z,1.1
2019-02-14T14:10:03.825Z,1.1
2019-02-14T14:11:03.174Z,2.5
2019-02-14T14:12:03.602Z,2.5
2019-02-14T14:13:03.896Z,0
2019-02-14T14:14:03.172Z,0
2019-02-14T14:15:03.022Z,1.1
2019-02-14T14:16:02.996Z,1.1
2019-02-14T14:17:03.813Z,1.1
2019-02-14T14:18:03.139Z,1.1
2019-02-14T14:19:06.986Z,1.1
2019-02-14T14:20:03.665Z,1.1
2019-02-14T14:21:03.001Z,0
2019-02-14T14:22:03.491Z,1.1
2019-02-14T14:23:03.024Z,1.1
2019-02-14T14:24:03.325Z,1.1
2019-02-14T14:25:04.135Z,2.5
2019-02-14T14:26:03.515Z,1.1